createdAt,value
2023-04-11T00:02:00.771Z,10.38
2023-04-11T00:07:24.167Z,10.34
2023-04-11T00:12:16.563Z,10.38
2023-04-11T00:17:16.491Z,10.33
2023-04-11T00:22:16.438Z,10.25
2023-04-11T00:27:16.347Z,10.31
2023-04-11T00:32:16.301Z,10.40
2023-04-11T00:37:16.196Z,10.40
2023-04-11T00:42:16.169Z,10.37
2023-04-11T00:47:16.082Z,10.22
2023-04-11T00:52:16.015Z,10.17
2023-04-11T00:57:15.942Z,10.13
2023-04-11T01:02:15.977Z,10.05
2023-04-11T01:07:15.829Z,10.01
2023-04-11T01:12:15.765Z,10.09
2023-04-11T01:17:15.708Z,10.15
2023-04-11T01:22:15.634Z,10.09
2023-04-11T01:27:15.556Z,10.02
2023-04-11T01:32:15.477Z,9.92
2023-04-11T01:37:15.406Z,9.83
2023-04-11T01:42:15.367Z,9.77
2023-04-11T01:47:15.281Z,9.80
2023-04-11T01:52:15.218Z,9.77
2023-04-11T01:57:15.247Z,9.77
2023-04-11T02:02:15.251Z,9.82
2023-04-11T02:07:15.014Z,9.80
2023-04-11T02:12:14.970Z,9.74
2023-04-11T02:17:14.900Z,9.69
2023-04-11T02:22:14.873Z,9.66
2023-04-11T02:27:14.775Z,9.68
2023-04-11T02:32:14.799Z,9.65
2023-04-11T02:37:14.645Z,9.61
2023-04-11T02:42:14.621Z,9.56
2023-04-11T02:47:14.483Z,9.54
2023-04-11T02:52:14.442Z,9.39
2023-04-11T02:57:14.363Z,9.39
2023-04-11T03:02:14.425Z,9.36
2023-04-11T03:07:14.229Z,9.29
2023-04-11T03:12:14.163Z,9.22
2023-04-11T03:17:14.090Z,9.13
2023-04-11T03:22:14.082Z,9.04
2023-04-11T03:27:13.960Z,8.97
2023-04-11T03:32:13.925Z,8.99
2023-04-11T03:37:13.829Z,8.99
2023-04-11T03:42:13.795Z,9.00
2023-04-11T03:47:13.695Z,9.00
2023-04-11T03:52:13.682Z,8.99
2023-04-11T03:57:13.567Z,8.92
2023-04-11T04:02:14.893Z,8.89
2023-04-11T04:07:13.426Z,8.88
2023-04-11T04:12:13.390Z,8.88
2023-04-11T04:17:24.273Z,8.81
2023-04-11T04:22:16.663Z,8.82
2023-04-11T04:27:16.612Z,8.84
2023-04-11T04:32:16.524Z,8.78
2023-04-11T04:37:16.465Z,8.79
2023-04-11T04:42:16.397Z,8.87
2023-04-11T04:47:16.334Z,8.82
2023-04-11T04:52:16.264Z,8.74
2023-04-11T04:57:16.196Z,8.81
2023-04-11T05:02:16.188Z,8.84
2023-04-11T05:07:16.086Z,8.81
2023-04-11T05:12:15.996Z,8.73
2023-04-11T05:17:15.947Z,8.74
2023-04-11T05:22:15.858Z,8.85
2023-04-11T05:27:15.822Z,8.94
2023-04-11T05:32:15.724Z,8.89
2023-04-11T05:37:15.688Z,8.87
2023-04-11T05:42:15.616Z,8.88
2023-04-11T05:47:15.562Z,8.91
2023-04-11T05:52:15.468Z,8.95
2023-04-11T05:57:15.413Z,8.92
2023-04-11T06:02:15.436Z,9.06
2023-04-11T06:07:15.288Z,9.19
2023-04-11T06:12:15.188Z,9.36
2023-04-11T06:17:15.156Z,9.32
2023-04-11T06:22:15.070Z,9.39
2023-04-11T06:27:15.028Z,9.44
2023-04-11T06:32:14.928Z,9.40
2023-04-11T06:37:14.929Z,9.44
2023-04-11T06:42:14.817Z,9.66
2023-04-11T06:47:14.763Z,9.73
2023-04-11T06:52:14.673Z,9.80
2023-04-11T06:57:14.622Z,9.98
2023-04-11T07:02:14.614Z,9.97
2023-04-11T07:07:14.506Z,9.97
2023-04-11T07:12:14.405Z,9.98
2023-04-11T07:17:14.373Z,10.16
2023-04-11T07:22:14.318Z,10.02
2023-04-11T07:27:14.387Z,9.91
2023-04-11T07:32:14.143Z,10.13
2023-04-11T07:37:14.097Z,10.15
2023-04-11T07:42:14.043Z,10.15
2023-04-11T07:47:13.973Z,10.16
2023-04-11T07:52:14.465Z,10.25
2023-04-11T07:57:13.837Z,10.15
2023-04-11T08:02:13.830Z,10.22
2023-04-11T08:07:13.739Z,10.19
2023-04-11T08:12:13.633Z,10.46
2023-04-11T08:17:25.211Z,10.76
2023-04-11T08:22:14.493Z,11.35
2023-04-11T08:27:13.454Z,12.60
2023-04-11T08:32:13.531Z,14.00
2023-04-11T08:37:13.321Z,12.62
2023-04-11T08:42:13.239Z,12.42
2023-04-11T08:47:13.193Z,13.42
2023-04-11T08:52:13.100Z,14.33
2023-04-11T08:57:13.068Z,12.72
2023-04-11T09:02:13.046Z,13.23
2023-04-11T09:07:12.878Z,13.59
2023-04-11T09:12:12.831Z,13.28
2023-04-11T09:17:12.765Z,14.82
2023-04-11T09:22:12.723Z,17.29
2023-04-11T09:27:12.700Z,18.89
2023-04-11T09:32:12.687Z,20.04
2023-04-11T09:37:12.501Z,15.36
2023-04-11T09:42:12.452Z,13.57
2023-04-11T09:47:12.368Z,14.26
2023-04-11T09:52:12.311Z,14.41
2023-04-11T09:57:12.265Z,15.98
2023-04-11T10:02:12.307Z,15.72
2023-04-11T10:07:12.107Z,14.48
2023-04-11T10:12:12.048Z,14.22
2023-04-11T10:17:11.987Z,18.20
2023-04-11T10:22:11.920Z,17.68
2023-04-11T10:27:11.841Z,15.47
2023-04-11T10:32:11.808Z,14.92
2023-04-11T10:37:11.714Z,17.19
2023-04-11T10:42:11.652Z,17.74
2023-04-11T10:47:11.693Z,18.58
2023-04-11T10:52:11.526Z,16.21
2023-04-11T10:57:11.419Z,17.52
2023-04-11T11:02:11.461Z,17.57
2023-04-11T11:07:11.327Z,20.58
2023-04-11T11:12:11.235Z,18.34
2023-04-11T11:17:11.178Z,19.09
2023-04-11T11:22:11.112Z,18.68
2023-04-11T11:27:11.098Z,18.28
2023-04-11T11:32:11.023Z,17.48
2023-04-11T11:37:10.907Z,19.81
2023-04-11T11:42:10.867Z,19.47
2023-04-11T11:47:11.493Z,20.07
2023-04-11T11:52:10.717Z,21.57
2023-04-11T11:57:10.702Z,18.20
2023-04-11T12:02:10.666Z,20.11
2023-04-11T12:07:10.861Z,17.44
2023-04-11T12:12:10.469Z,15.46
2023-04-11T12:17:10.377Z,14.91
2023-04-11T12:22:10.414Z,16.01
2023-04-11T12:27:10.820Z,16.79
2023-04-11T12:32:10.234Z,17.59
2023-04-11T12:37:10.097Z,16.01
2023-04-11T12:42:10.637Z,15.54
2023-04-11T12:47:09.967Z,15.80
2023-04-11T12:52:10.132Z,15.75
2023-04-11T12:57:09.849Z,16.26
2023-04-11T13:02:09.867Z,17.23
2023-04-11T13:07:09.688Z,16.21
2023-04-11T13:12:09.664Z,15.84
2023-04-11T13:17:09.577Z,15.92
2023-04-11T13:22:09.526Z,16.43
2023-04-11T13:27:09.443Z,17.41
2023-04-11T13:32:09.384Z,18.13
2023-04-11T13:37:09.430Z,18.08
2023-04-11T13:42:09.280Z,17.57
2023-04-11T13:47:09.174Z,16.32
2023-04-11T13:52:09.136Z,15.92
2023-04-11T13:57:09.048Z,15.59
2023-04-11T14:02:09.182Z,15.44
2023-04-11T14:07:08.925Z,15.58
2023-04-11T14:12:08.853Z,16.33
2023-04-11T14:17:08.876Z,16.69
2023-04-11T14:22:08.718Z,17.16
2023-04-11T14:27:08.646Z,17.26
2023-04-11T14:32:08.634Z,16.79
2023-04-11T14:37:08.572Z,16.43
2023-04-11T14:42:08.467Z,16.38
2023-04-11T14:47:08.377Z,16.29
2023-04-11T14:52:08.338Z,16.21
2023-04-11T14:57:08.267Z,16.23
2023-04-11T15:02:08.307Z,15.84
2023-04-11T15:07:08.144Z,15.73
2023-04-11T15:12:08.048Z,15.70
2023-04-11T15:17:08.005Z,15.75
2023-04-11T15:22:07.932Z,15.19
2023-04-11T15:27:07.836Z,15.04
2023-04-11T15:32:07.803Z,14.85
2023-04-11T15:37:07.777Z,14.78
2023-04-11T15:42:07.685Z,14.84
2023-04-11T15:47:07.647Z,14.66
2023-04-11T15:52:07.546Z,14.99
2023-04-11T15:57:07.450Z,15.37
2023-04-11T16:02:07.584Z,15.17
2023-04-11T16:07:07.338Z,15.03
2023-04-11T16:12:07.280Z,14.79
2023-04-11T16:17:07.998Z,14.66
2023-04-11T16:22:07.132Z,14.63
2023-04-11T16:27:07.050Z,14.40
2023-04-11T16:32:07.031Z,14.18
2023-04-11T16:37:06.943Z,13.99
2023-04-11T16:42:06.840Z,13.97
2023-04-11T16:47:06.812Z,14.00
2023-04-11T16:52:06.732Z,13.99
2023-04-11T16:57:06.718Z,13.95
2023-04-11T17:02:06.676Z,13.85
2023-04-11T17:07:06.539Z,13.70
2023-04-11T17:12:06.453Z,13.70
2023-04-11T17:17:06.476Z,13.57
2023-04-11T17:22:06.332Z,13.49
2023-04-11T17:27:06.621Z,13.42
2023-04-11T17:32:06.186Z,13.33
2023-04-11T17:37:06.132Z,13.27
2023-04-11T17:42:06.073Z,13.15
2023-04-11T17:47:06.021Z,13.09
2023-04-11T17:52:05.919Z,12.97
2023-04-11T17:57:05.898Z,12.87
2023-04-11T18:02:05.911Z,12.83
2023-04-11T18:07:05.749Z,12.78
2023-04-11T18:12:05.728Z,12.67
2023-04-11T18:17:05.645Z,12.55
2023-04-11T18:22:05.538Z,12.49
2023-04-11T18:27:05.527Z,12.40
2023-04-11T18:32:05.411Z,12.32
2023-04-11T18:37:05.413Z,12.22
2023-04-11T18:42:05.327Z,12.10
2023-04-11T18:47:06.655Z,11.97
2023-04-11T18:52:05.155Z,11.88
2023-04-11T18:57:05.074Z,11.70
2023-04-11T19:02:05.200Z,11.52
2023-04-11T19:07:04.982Z,11.50
2023-04-11T19:12:04.883Z,11.43
2023-04-11T19:17:04.842Z,11.37
2023-04-11T19:22:04.738Z,11.18
2023-04-11T19:27:04.696Z,11.07
2023-04-11T19:32:04.634Z,11.02
2023-04-11T19:37:04.588Z,11.08
2023-04-11T19:42:04.505Z,11.15
2023-04-11T19:47:04.419Z,11.11
2023-04-11T19:52:04.470Z,11.02
2023-04-11T19:57:04.338Z,10.99
2023-04-11T20:02:04.250Z,10.90
2023-04-11T20:07:04.182Z,10.86
2023-04-11T20:12:04.066Z,10.75
2023-04-11T20:17:04.074Z,10.67
2023-04-11T20:22:04.013Z,10.68
2023-04-11T20:27:03.878Z,10.68
2023-04-11T20:32:03.825Z,10.64
2023-04-11T20:37:03.754Z,10.67
2023-04-11T20:42:03.663Z,10.71
2023-04-11T20:47:03.659Z,10.74
2023-04-11T20:52:03.551Z,10.79
2023-04-11T20:57:03.485Z,10.79
2023-04-11T21:02:03.500Z,10.76
2023-04-11T21:07:03.364Z,10.76
2023-04-11T21:12:03.352Z,10.75
2023-04-11T21:17:03.284Z,10.74
2023-04-11T21:22:03.453Z,10.72
2023-04-11T21:27:03.087Z,10.68
2023-04-11T21:32:03.028Z,10.61
2023-04-11T21:37:03.031Z,10.60
2023-04-11T21:42:02.938Z,10.57
2023-04-11T21:47:02.951Z,10.53
2023-04-11T21:52:02.791Z,10.54
2023-04-11T21:57:02.673Z,10.56
2023-04-11T22:02:02.686Z,10.54
2023-04-11T22:07:02.565Z,10.56
2023-04-11T22:12:02.448Z,10.54
2023-04-11T22:17:02.441Z,10.53
2023-04-11T22:22:02.349Z,10.51
2023-04-11T22:27:02.326Z,10.48
2023-04-11T22:32:02.286Z,10.42
2023-04-11T22:37:02.160Z,10.41
2023-04-11T22:42:02.105Z,10.37
2023-04-11T22:47:02.027Z,10.34
2023-04-11T22:52:01.988Z,10.38
2023-04-11T22:57:01.900Z,10.37
2023-04-11T23:02:03.407Z,10.37
2023-04-11T23:07:01.778Z,10.38
2023-04-11T23:12:01.699Z,10.37
2023-04-11T23:17:01.679Z,10.35
2023-04-11T23:22:01.559Z,10.33
2023-04-11T23:27:01.512Z,10.28
2023-04-11T23:32:01.428Z,10.30
2023-04-11T23:37:01.460Z,10.28
2023-04-11T23:42:01.326Z,10.28
2023-04-11T23:47:01.946Z,10.23
2023-04-11T23:52:01.161Z,10.23
2023-04-11T23:57:01.235Z,10.25
